Time;durP1;ratioP1;P1;durP2;ratioP2;P2;SDS_P1;SDS_P2;PMS_P1;PMS_P2;Temp;Humidity;BMP_temperature;BMP_pressure;BME280_temperature;BME280_humidity;BME280_pressure;Samples;Min_cycle;Max_cycle;Signal;HPM_P1;HPM_P2
2022/12/08 00:01:55;;;;;;;9.73;6.17;;;1.80;99.90;;;;;;5017290;28;20241;-89
2022/12/08 00:09:20;;;;;;;7.63;5.87;;;1.70;99.90;;;;;;4999886;28;20178;-89
2022/12/08 00:10:07;;;;;;;8.50;6.30;;;1.70;99.90;;;;;;5033840;28;20179;-88
2022/12/08 00:12:33;;;;;;;8.43;5.80;;;1.70;99.90;;;;;;5001053;28;20182;-88
2022/12/08 00:14:59;;;;;;;11.60;7.43;;;1.70;99.90;;;;;;5000447;28;20206;-90
2022/12/08 00:17:25;;;;;;;12.97;7.63;;;1.60;99.90;;;;;;4991062;28;20193;-90
2022/12/08 00:19:51;;;;;;;11.17;8.07;;;1.50;99.90;;;;;;4981197;28;20276;-91
2022/12/08 00:22:16;;;;;;;11.93;7.70;;;1.40;99.90;;;;;;4981497;28;20209;-90
2022/12/08 00:24:45;;;;;;;14.23;8.50;;;1.30;99.90;;;;;;4986533;28;20201;-90
2022/12/08 00:27:13;;;;;;;9.67;7.30;;;1.30;99.90;;;;;;5000359;28;20638;-90
2022/12/08 00:29:50;;;;;;;11.77;8.00;;;1.20;99.90;;;;;;5000686;28;20274;-89
2022/12/08 00:32:16;;;;;;;12.10;7.90;;;1.10;99.90;;;;;;4997486;28;20189;-90
2022/12/08 00:34:42;;;;;;;12.33;8.60;;;1.10;99.90;;;;;;4996989;28;20214;-89
2022/12/08 00:37:08;;;;;;;13.20;8.80;;;1.00;99.90;;;;;;4996765;28;20236;-90
2022/12/08 00:39:33;;;;;;;12.73;8.30;;;1.00;99.90;;;;;;4997119;28;20182;-90
2022/12/08 00:42:11;;;;;;;15.33;8.57;;;1.00;99.90;;;;;;4997054;28;20182;-90
2022/12/08 00:44:38;;;;;;;11.90;8.20;;;1.10;99.90;;;;;;4996698;28;20218;-90
2022/12/08 00:47:29;;;;;;;11.83;7.90;;;1.10;99.90;;;;;;5012492;28;20181;-90
2022/12/08 00:49:55;;;;;;;11.23;7.87;;;1.10;99.90;;;;;;4999601;28;20247;-90
2022/12/08 00:52:21;;;;;;;16.03;7.90;;;1.10;99.90;;;;;;5000188;28;20178;-89
2022/12/08 00:54:47;;;;;;;11.30;7.43;;;1.00;99.90;;;;;;4998733;28;20206;-88
2022/12/08 00:57:13;;;;;;;11.23;7.40;;;0.90;99.90;;;;;;5000080;28;20186;-88
2022/12/08 00:59:39;;;;;;;13.13;7.57;;;0.90;99.90;;;;;;4999971;28;20174;-89
2022/12/08 01:02:05;;;;;;;9.70;6.77;;;0.80;99.90;;;;;;5000262;28;20243;-88
2022/12/08 01:04:30;;;;;;;9.60;6.53;;;0.80;99.90;;;;;;5000003;28;20196;-90
2022/12/08 01:06:56;;;;;;;9.20;6.60;;;0.80;99.90;;;;;;4999899;28;20191;-89
2022/12/08 01:09:22;;;;;;;11.30;7.63;;;0.70;99.90;;;;;;4996059;28;20185;-89
2022/12/08 01:11:48;;;;;;;10.80;7.00;;;0.60;99.90;;;;;;4996412;28;20186;-89
2022/12/08 01:14:14;;;;;;;13.00;8.03;;;0.60;99.90;;;;;;5014319;28;20280;-89
2022/12/08 01:16:40;;;;;;;11.80;7.43;;;0.50;99.90;;;;;;4995795;28;20190;-88
2022/12/08 01:19:06;;;;;;;11.57;7.67;;;0.50;99.90;;;;;;5012594;28;20199;-89
2022/12/08 01:21:32;;;;;;;13.00;7.70;;;0.50;99.90;;;;;;4996300;28;20185;-89
2022/12/08 01:23:59;;;;;;;11.13;6.77;;;0.50;99.90;;;;;;5008104;28;20208;-88
2022/12/08 01:26:25;;;;;;;11.90;7.90;;;0.50;99.90;;;;;;4998403;28;20253;-89
2022/12/08 01:28:51;;;;;;;11.03;7.63;;;0.50;99.90;;;;;;4997773;28;20225;-89
2022/12/08 01:31:19;;;;;;;11.70;6.97;;;0.60;99.90;;;;;;4999037;28;20172;-89
2022/12/08 01:34:05;;;;;;;9.00;6.83;;;0.60;99.90;;;;;;4990867;28;20184;-89
2022/12/08 01:36:32;;;;;;;9.83;6.77;;;0.70;99.90;;;;;;4995921;28;20213;-89
2022/12/08 01:39:00;;;;;;;10.87;7.13;;;0.70;99.90;;;;;;4996358;28;20186;-90
2022/12/08 01:41:29;;;;;;;10.50;7.00;;;0.60;99.90;;;;;;4996515;28;20182;-90
2022/12/08 01:44:10;;;;;;;9.67;6.93;;;0.60;99.90;;;;;;4995922;28;20200;-90
2022/12/08 01:46:38;;;;;;;12.03;8.07;;;0.50;99.90;;;;;;4995932;28;20211;-89
2022/12/08 01:49:20;;;;;;;9.63;6.87;;;0.50;99.90;;;;;;4996126;28;20176;-89
2022/12/08 01:51:50;;;;;;;10.33;7.03;;;0.50;99.90;;;;;;4996003;28;20195;-89
2022/12/08 01:54:52;;;;;;;11.83;7.50;;;0.50;99.90;;;;;;4995487;28;20213;-89
2022/12/08 01:57:21;;;;;;;10.97;7.63;;;0.50;99.90;;;;;;5012574;28;20181;-88
2022/12/08 01:59:53;;;;;;;11.57;8.27;;;0.40;99.90;;;;;;5016314;28;20220;-88
2022/12/08 02:02:19;;;;;;;12.50;7.50;;;0.40;99.90;;;;;;5019169;28;20246;-89
2022/12/08 02:04:45;;;;;;;12.43;8.93;;;0.40;99.90;;;;;;5018634;28;20196;-89
2022/12/08 02:07:13;;;;;;;11.60;8.47;;;0.30;99.90;;;;;;5018411;28;20229;-89
2022/12/08 02:09:41;;;;;;;12.33;8.47;;;0.20;99.90;;;;;;5018808;28;20217;-88
2022/12/08 02:12:07;;;;;;;11.93;7.80;;;0.20;99.90;;;;;;5018796;28;20213;-88
2022/12/08 02:14:34;;;;;;;11.87;8.43;;;0.20;99.90;;;;;;5018911;28;20193;-89
2022/12/08 02:17:04;;;;;;;12.20;8.00;;;0.20;99.90;;;;;;5018209;28;20271;-88
2022/12/08 02:19:58;;;;;;;11.83;8.17;;;0.20;99.90;;;;;;5018796;28;20275;-88
2022/12/08 02:22:32;;;;;;;12.40;7.60;;;0.10;99.90;;;;;;5002079;28;20268;-88
2022/12/08 02:25:23;;;;;;;9.97;7.43;;;0.20;99.90;;;;;;5018151;28;20246;-88
2022/12/08 02:28:16;;;;;;;10.90;7.40;;;0.10;99.90;;;;;;5018521;28;20227;-89
2022/12/08 02:31:10;;;;;;;11.23;7.40;;;0.10;99.90;;;;;;5018591;28;20229;-90
2022/12/08 02:34:14;;;;;;;10.70;7.70;;;0.10;99.90;;;;;;5018357;28;20200;-89
2022/12/08 02:37:07;;;;;;;11.50;7.80;;;0.00;99.90;;;;;;5002144;28;20197;-89
2022/12/08 02:39:51;;;;;;;10.07;7.27;;;0.00;99.90;;;;;;5018462;28;20184;-89
2022/12/08 02:42:32;;;;;;;12.07;7.50;;;0.00;99.90;;;;;;5018232;28;20533;-87
2022/12/08 02:45:26;;;;;;;11.63;7.60;;;-0.10;99.90;;;;;;5018242;28;20210;-88
2022/12/08 02:47:53;;;;;;;9.97;7.37;;;-0.10;99.90;;;;;;4999319;28;20195;-88
2022/12/08 02:50:19;;;;;;;11.03;7.73;;;-0.10;99.90;;;;;;5001416;28;20188;-88
2022/12/08 02:52:46;;;;;;;15.43;8.27;;;-0.20;99.90;;;;;;4985990;28;20196;-89
2022/12/08 02:59:18;;;;;;;12.30;7.87;;;-0.30;99.90;;;;;;4957384;28;20226;-89
2022/12/08 03:01:57;;;;;;;12.37;7.30;;;-0.40;99.90;;;;;;4985910;28;20187;-89
2022/12/08 03:04:44;;;;;;;10.87;7.63;;;-0.40;99.90;;;;;;4985416;28;20212;-89
2022/12/08 03:07:26;;;;;;;11.90;7.13;;;-0.40;99.90;;;;;;5001690;28;20175;-90
2022/12/08 03:10:02;;;;;;;13.60;9.13;;;-0.40;99.90;;;;;;4985780;28;20167;-88
2022/12/08 03:12:37;;;;;;;12.23;7.47;;;-0.50;99.90;;;;;;4981972;28;20180;-88
2022/12/08 03:15:09;;;;;;;11.43;7.77;;;-0.50;99.90;;;;;;4982318;28;20199;-88
2022/12/08 03:17:37;;;;;;;12.27;7.47;;;-0.60;99.90;;;;;;4982640;28;20331;-87
2022/12/08 03:20:07;;;;;;;9.53;7.13;;;-0.50;99.90;;;;;;4982527;28;20195;-87
2022/12/08 03:22:33;;;;;;;10.83;7.70;;;-0.60;99.90;;;;;;4998636;28;20691;-88
2022/12/08 03:24:59;;;;;;;12.80;8.07;;;-0.60;99.90;;;;;;4981885;28;20276;-88
2022/12/08 03:27:30;;;;;;;11.97;7.43;;;-0.60;99.90;;;;;;4981809;28;20194;-88
2022/12/08 03:29:57;;;;;;;11.53;7.53;;;-0.60;99.90;;;;;;4982090;28;20222;-88
2022/12/08 03:32:36;;;;;;;12.33;7.17;;;-0.60;99.90;;;;;;4982212;28;20179;-88
2022/12/08 03:35:11;;;;;;;11.50;7.50;;;-0.60;99.90;;;;;;4988761;28;20233;-88
2022/12/08 03:37:38;;;;;;;11.20;7.63;;;-0.70;99.90;;;;;;5001639;28;20178;-89
2022/12/08 03:40:19;;;;;;;12.50;7.70;;;-0.70;99.90;;;;;;5001564;28;20176;-88
2022/12/08 03:42:45;;;;;;;12.37;7.90;;;-0.70;99.90;;;;;;5001598;28;20203;-88
2022/12/08 03:45:11;;;;;;;14.77;8.30;;;-0.70;99.90;;;;;;4997903;28;20691;-88
2022/12/08 03:47:37;;;;;;;10.97;7.77;;;-0.80;99.90;;;;;;5014084;28;20180;-88
2022/12/08 03:50:03;;;;;;;12.43;8.13;;;-0.80;99.90;;;;;;5010916;28;20190;-89
2022/12/08 03:52:29;;;;;;;13.00;8.07;;;-0.90;99.90;;;;;;4980099;28;20172;-88
2022/12/08 03:54:55;;;;;;;12.83;8.70;;;-0.90;99.90;;;;;;4991932;28;20206;-87
2022/12/08 03:57:22;;;;;;;14.93;8.40;;;-0.90;99.90;;;;;;4997905;28;20208;-88
2022/12/08 03:59:48;;;;;;;12.30;8.17;;;-0.90;99.90;;;;;;5014409;28;20182;-87
2022/12/08 04:02:14;;;;;;;12.53;8.13;;;-0.90;99.90;;;;;;5014156;28;20179;-88
2022/12/08 04:04:40;;;;;;;12.67;8.27;;;-0.90;99.90;;;;;;4997553;28;20202;-88
2022/12/08 04:07:05;;;;;;;13.10;8.10;;;-0.90;99.90;;;;;;4997816;28;20310;-88
2022/12/08 04:09:31;;;;;;;11.40;7.93;;;-0.90;99.90;;;;;;4998092;28;20171;-88
2022/12/08 04:11:57;;;;;;;10.97;7.50;;;-0.90;99.90;;;;;;4997632;28;20173;-89
2022/12/08 04:14:23;;;;;;;11.60;7.83;;;-0.90;99.90;;;;;;4997481;28;20175;-88
2022/12/08 04:16:49;;;;;;;10.20;7.23;;;-0.90;99.90;;;;;;5000446;28;20190;-87
2022/12/08 04:19:15;;;;;;;11.13;7.83;;;-0.90;99.90;;;;;;5000783;28;20266;-88
2022/12/08 04:21:41;;;;;;;13.87;8.63;;;-0.90;99.90;;;;;;5001030;28;20266;-87
2022/12/08 04:24:07;;;;;;;11.70;7.70;;;-0.90;99.90;;;;;;5001179;28;20206;-88
2022/12/08 04:26:33;;;;;;;10.60;7.50;;;-0.90;99.90;;;;;;5000498;28;20228;-87
2022/12/08 04:28:59;;;;;;;10.53;7.13;;;-0.90;99.90;;;;;;5000672;28;20190;-87
2022/12/08 04:31:25;;;;;;;10.87;7.93;;;-0.90;99.90;;;;;;5000581;28;20278;-87
2022/12/08 04:33:51;;;;;;;11.73;7.43;;;-1.00;99.90;;;;;;5000848;28;20185;-86
2022/12/08 04:36:17;;;;;;;10.73;7.40;;;-1.00;99.90;;;;;;5000604;28;20194;-87
2022/12/08 04:38:42;;;;;;;12.60;7.10;;;-1.00;99.90;;;;;;5000079;28;20529;-87
2022/12/08 04:41:08;;;;;;;9.90;7.03;;;-1.10;99.90;;;;;;5000585;28;20180;-87
2022/12/08 04:43:35;;;;;;;12.10;7.90;;;-1.10;99.90;;;;;;5000375;28;20182;-87
2022/12/08 04:46:05;;;;;;;13.17;7.93;;;-1.10;99.90;;;;;;5016813;28;20566;-87
2022/12/08 04:48:31;;;;;;;13.00;8.10;;;-1.20;99.90;;;;;;5000403;28;20203;-86
2022/12/08 04:50:57;;;;;;;13.43;8.70;;;-1.30;99.90;;;;;;5000494;28;20206;-88
2022/12/08 04:53:25;;;;;;;13.63;8.33;;;-1.30;99.90;;;;;;5016201;28;20273;-87
2022/12/08 04:55:51;;;;;;;14.97;8.93;;;-1.30;99.90;;;;;;5000193;28;20217;-88
2022/12/08 04:58:18;;;;;;;12.77;8.60;;;-1.30;99.90;;;;;;5000187;28;20190;-87
2022/12/08 05:00:47;;;;;;;15.37;9.47;;;-1.30;99.90;;;;;;4999325;28;20182;-87
2022/12/08 05:03:19;;;;;;;11.77;8.33;;;-1.40;99.90;;;;;;4999859;28;20695;-87
2022/12/08 05:05:45;;;;;;;14.00;9.07;;;-1.40;99.90;;;;;;5000009;28;20210;-87
2022/12/08 05:08:11;;;;;;;16.77;8.93;;;-1.50;99.90;;;;;;5000080;28;20179;-87
2022/12/08 05:11:05;;;;;;;13.53;8.43;;;-1.50;99.90;;;;;;4999877;28;20189;-87
2022/12/08 05:13:32;;;;;;;14.03;8.77;;;-1.40;99.90;;;;;;4999627;28;20229;-87
2022/12/08 05:16:06;;;;;;;13.70;8.77;;;-1.30;99.90;;;;;;4999122;28;20281;-87
2022/12/08 05:18:32;;;;;;;12.43;8.33;;;-1.30;99.90;;;;;;4999772;28;20187;-87
2022/12/08 05:20:58;;;;;;;15.10;9.13;;;-1.30;99.90;;;;;;4999246;28;20178;-87
2022/12/08 05:23:25;;;;;;;16.40;9.47;;;-1.30;99.90;;;;;;4999606;28;20194;-88
2022/12/08 05:25:51;;;;;;;13.70;8.60;;;-1.20;99.90;;;;;;4999079;28;20341;-90
2022/12/08 05:28:17;;;;;;;15.40;9.07;;;-1.30;99.90;;;;;;4999354;28;20293;-88
2022/12/08 05:30:42;;;;;;;13.90;9.00;;;-1.30;99.90;;;;;;4996471;28;20190;-87
2022/12/08 05:33:08;;;;;;;17.00;10.90;;;-1.30;99.90;;;;;;4995889;28;20242;-87
2022/12/08 05:35:34;;;;;;;17.87;11.47;;;-1.30;99.90;;;;;;4996107;28;20202;-87
2022/12/08 05:38:00;;;;;;;24.40;13.80;;;-1.40;99.90;;;;;;4996032;28;20636;-87
2022/12/08 05:40:26;;;;;;;24.83;14.37;;;-1.40;99.90;;;;;;4995891;28;20238;-88
2022/12/08 05:42:52;;;;;;;21.87;12.70;;;-1.40;99.90;;;;;;4995859;28;20186;-87
2022/12/08 05:45:17;;;;;;;19.37;12.30;;;-1.40;99.90;;;;;;4995648;28;20211;-87
2022/12/08 05:47:44;;;;;;;20.07;11.93;;;-1.30;99.90;;;;;;4996092;28;20187;-87
2022/12/08 05:50:10;;;;;;;18.43;12.67;;;-1.40;99.90;;;;;;4991396;28;20179;-87
2022/12/08 05:52:35;;;;;;;20.70;12.07;;;-1.40;99.90;;;;;;4979772;28;20187;-87
2022/12/08 05:55:07;;;;;;;17.60;10.73;;;-1.40;99.90;;;;;;4992751;28;20289;-88
2022/12/08 05:57:33;;;;;;;18.03;10.23;;;-1.40;99.90;;;;;;4998184;28;20248;-87
2022/12/08 05:59:59;;;;;;;18.03;10.53;;;-1.40;99.90;;;;;;4998957;28;20237;-87
2022/12/08 06:02:25;;;;;;;14.60;9.57;;;-1.40;99.90;;;;;;4999213;28;20651;-87
2022/12/08 06:04:51;;;;;;;13.87;9.37;;;-1.40;99.90;;;;;;4999213;28;20301;-87
2022/12/08 06:07:17;;;;;;;13.30;8.37;;;-1.50;99.90;;;;;;4999405;28;20189;-87
2022/12/08 06:10:02;;;;;;;12.87;8.13;;;-1.50;99.90;;;;;;4998797;28;20197;-87
2022/12/08 06:12:28;;;;;;;11.40;7.77;;;-1.60;99.90;;;;;;4995494;28;20181;-88
2022/12/08 06:14:54;;;;;;;11.83;7.63;;;-1.60;99.90;;;;;;5012170;28;20282;-87
2022/12/08 06:17:19;;;;;;;14.93;8.37;;;-1.70;99.90;;;;;;5015525;28;20192;-87
2022/12/08 06:19:45;;;;;;;12.53;7.70;;;-1.70;99.90;;;;;;4999041;28;20250;-87
2022/12/08 06:22:11;;;;;;;12.73;7.90;;;-1.70;99.90;;;;;;5015261;28;20273;-87
2022/12/08 06:24:37;;;;;;;13.27;8.33;;;-1.70;99.90;;;;;;5015329;28;20198;-88
2022/12/08 06:27:03;;;;;;;14.33;9.03;;;-1.70;99.90;;;;;;4998952;28;20218;-88
2022/12/08 06:29:29;;;;;;;18.10;9.33;;;-1.70;99.90;;;;;;4999101;28;20194;-88
2022/12/08 06:31:55;;;;;;;15.50;8.83;;;-1.80;99.90;;;;;;4998845;28;20643;-88
2022/12/08 06:34:20;;;;;;;16.37;9.30;;;-1.80;99.90;;;;;;4996388;28;20183;-88
2022/12/08 06:36:46;;;;;;;16.73;10.03;;;-1.70;99.90;;;;;;4994996;28;20187;-88
2022/12/08 06:39:12;;;;;;;15.00;8.53;;;-1.70;99.90;;;;;;4995820;28;20210;-88
2022/12/08 06:42:42;;;;;;;13.60;7.83;;;-1.70;99.90;;;;;;4995764;28;20179;-88
2022/12/08 06:44:24;;;;;;;12.40;8.23;;;-1.70;99.90;;;;;;5011918;28;20176;-88
2022/12/08 06:46:49;;;;;;;12.67;7.73;;;-1.70;99.90;;;;;;5013655;28;20210;-88
2022/12/08 06:49:15;;;;;;;13.60;8.47;;;-1.60;99.90;;;;;;4999266;28;20243;-88
2022/12/08 06:51:41;;;;;;;14.93;8.67;;;-1.50;99.90;;;;;;4999349;28;20179;-88
2022/12/08 06:54:07;;;;;;;12.17;7.73;;;-1.50;99.90;;;;;;4999325;28;20179;-88
2022/12/08 06:56:33;;;;;;;11.07;7.33;;;-1.50;99.90;;;;;;4998714;28;20234;-88
2022/12/08 06:58:59;;;;;;;12.00;7.53;;;-1.50;99.90;;;;;;4998676;28;20668;-88
2022/12/08 07:01:24;;;;;;;14.57;7.90;;;-1.50;99.90;;;;;;4999143;28;20182;-88
2022/12/08 07:03:50;;;;;;;10.80;7.73;;;-1.60;99.90;;;;;;4998798;28;20209;-88
2022/12/08 07:06:21;;;;;;;14.43;8.13;;;-1.60;99.90;;;;;;4998428;28;20203;-88
2022/12/08 07:08:47;;;;;;;13.87;9.33;;;-1.60;99.90;;;;;;5018691;28;20179;-88
2022/12/08 07:11:13;;;;;;;15.90;10.67;;;-1.60;99.90;;;;;;5002378;28;20183;-88
2022/12/08 07:13:39;;;;;;;15.83;9.90;;;-1.60;99.90;;;;;;5002211;28;20260;-88
2022/12/08 07:16:09;;;;;;;15.47;10.27;;;-1.50;99.90;;;;;;5001730;28;20206;-88
2022/12/08 07:18:36;;;;;;;14.50;9.53;;;-1.50;99.90;;;;;;5002247;28;20190;-88
2022/12/08 07:21:11;;;;;;;18.10;11.73;;;-1.50;99.90;;;;;;5018298;28;20228;-88
2022/12/08 07:23:37;;;;;;;13.93;9.67;;;-1.50;99.90;;;;;;5001768;28;20647;-88
2022/12/08 07:26:07;;;;;;;15.40;8.67;;;-1.40;99.90;;;;;;5001970;28;20218;-88
2022/12/08 07:28:34;;;;;;;12.30;8.20;;;-1.40;99.90;;;;;;5001837;28;20190;-88
2022/12/08 07:31:01;;;;;;;14.20;8.87;;;-1.50;99.90;;;;;;5001743;28;20623;-88
2022/12/08 07:33:27;;;;;;;12.90;9.17;;;-1.60;99.90;;;;;;5001586;28;20174;-88
2022/12/08 07:35:57;;;;;;;13.00;9.13;;;-1.60;99.90;;;;;;5001289;28;20199;-88
2022/12/08 07:38:24;;;;;;;15.20;9.13;;;-1.60;99.90;;;;;;5001876;28;20178;-86
2022/12/08 07:40:50;;;;;;;14.27;9.33;;;-1.70;99.90;;;;;;5001177;28;20201;-86
2022/12/08 07:43:16;;;;;;;15.90;9.63;;;-1.70;99.90;;;;;;5001386;28;20179;-86
2022/12/08 07:45:42;;;;;;;17.93;10.73;;;-1.70;99.90;;;;;;5001222;28;20221;-86
2022/12/08 07:48:08;;;;;;;17.07;10.97;;;-1.70;99.90;;;;;;5000968;28;20180;-88
2022/12/08 07:50:34;;;;;;;18.10;11.03;;;-1.70;99.90;;;;;;5004700;28;20280;-88
2022/12/08 07:53:00;;;;;;;16.83;12.03;;;-1.80;99.90;;;;;;4981701;28;20183;-88
2022/12/08 07:55:26;;;;;;;19.63;10.63;;;-1.80;99.90;;;;;;4981951;28;20203;-88
2022/12/08 07:57:52;;;;;;;16.27;10.60;;;-1.80;99.90;;;;;;4980892;28;20179;-89
2022/12/08 08:00:19;;;;;;;17.23;11.50;;;-1.80;99.90;;;;;;4997827;28;20180;-88
2022/12/08 08:02:44;;;;;;;18.70;12.37;;;-1.70;99.90;;;;;;4981620;28;20222;-88
2022/12/08 08:05:13;;;;;;;22.33;13.93;;;-1.80;99.90;;;;;;4981428;28;20234;-88
2022/12/08 08:07:45;;;;;;;24.17;15.27;;;-1.80;99.90;;;;;;4994507;28;20261;-88
2022/12/08 08:10:12;;;;;;;22.40;14.67;;;-1.90;99.90;;;;;;5001076;28;20198;-88
2022/12/08 08:12:37;;;;;;;26.20;15.07;;;-1.90;99.90;;;;;;5000970;28;20300;-89
2022/12/08 08:15:08;;;;;;;23.57;14.67;;;-1.90;99.90;;;;;;5000814;28;20221;-89
2022/12/08 08:17:35;;;;;;;24.67;13.63;;;-1.90;99.90;;;;;;5000988;28;20305;-89
2022/12/08 08:20:08;;;;;;;20.00;12.73;;;-1.90;99.90;;;;;;5000602;28;20190;-89
2022/12/08 08:22:35;;;;;;;20.63;12.80;;;-1.80;99.90;;;;;;4999121;28;20191;-89
2022/12/08 08:25:02;;;;;;;18.90;12.47;;;-1.70;99.90;;;;;;4996823;28;20195;-89
2022/12/08 08:27:27;;;;;;;19.30;12.33;;;-1.60;99.90;;;;;;4997272;28;20370;-89
2022/12/08 08:29:53;;;;;;;18.63;11.87;;;-1.50;99.90;;;;;;4997374;28;20269;-89
2022/12/08 08:32:19;;;;;;;19.63;11.50;;;-1.40;99.90;;;;;;4997656;28;20179;-89
2022/12/08 08:34:45;;;;;;;19.33;10.90;;;-1.20;99.90;;;;;;4997108;28;20203;-89
2022/12/08 08:37:11;;;;;;;17.07;10.97;;;-1.10;99.90;;;;;;4981050;28;20286;-89
2022/12/08 08:43:38;;;;;;;15.00;9.87;;;-0.80;99.90;;;;;;5014725;28;20687;-89
2022/12/08 08:46:05;;;;;;;17.50;9.80;;;-0.60;99.90;;;;;;5013340;28;20209;-89
2022/12/08 08:48:31;;;;;;;13.17;9.50;;;-0.50;99.90;;;;;;5016572;28;20178;-90
2022/12/08 08:50:58;;;;;;;14.83;9.80;;;-0.40;99.90;;;;;;5000164;28;20179;-89
2022/12/08 08:53:24;;;;;;;18.40;11.57;;;-0.40;99.90;;;;;;5006215;28;20607;-90
2022/12/08 08:55:50;;;;;;;18.07;10.47;;;-0.30;99.90;;;;;;5001067;28;20199;-89
2022/12/08 08:58:17;;;;;;;15.47;10.20;;;-0.20;99.90;;;;;;5000302;28;20183;-89
2022/12/08 09:00:43;;;;;;;16.53;10.13;;;-0.20;99.90;;;;;;4999962;28;20214;-89
2022/12/08 09:03:09;;;;;;;20.17;11.07;;;-0.10;99.90;;;;;;5000508;28;20192;-89
2022/12/08 09:05:38;;;;;;;16.40;9.83;;;-0.10;99.90;;;;;;5000140;28;20221;-89
2022/12/08 09:08:04;;;;;;;20.10;10.80;;;0.00;99.90;;;;;;4999826;28;20188;-89
2022/12/08 09:10:30;;;;;;;16.27;9.60;;;0.10;99.90;;;;;;4996551;23;20221;-38
2022/12/08 09:12:55;;;;;;;17.20;10.13;;;0.20;99.90;;;;;;4958427;28;20190;-41
2022/12/08 09:15:21;;;;;;;15.83;10.53;;;0.30;99.90;;;;;;4958411;28;20194;-38
2022/12/08 09:17:47;;;;;;;15.63;9.60;;;0.40;99.90;;;;;;4974299;28;20199;-41
2022/12/08 09:20:13;;;;;;;14.87;9.20;;;0.50;99.90;;;;;;4992297;28;20256;-39
2022/12/08 09:22:39;;;;;;;13.43;9.10;;;0.60;99.90;;;;;;4991855;28;20173;-41
2022/12/08 09:25:06;;;;;;;13.23;9.03;;;0.70;99.90;;;;;;5040619;23;20254;-35
2022/12/08 09:27:32;;;;;;;15.57;9.70;;;0.80;99.90;;;;;;4998569;28;20187;-35
2022/12/08 09:29:58;;;;;;;15.13;9.00;;;0.70;99.90;;;;;;4997518;28;20181;-35
2022/12/08 09:32:24;;;;;;;14.07;9.83;;;0.80;99.90;;;;;;5009881;28;20186;-35
2022/12/08 09:34:50;;;;;;;15.57;9.63;;;0.90;99.90;;;;;;4993859;28;20266;-44
2022/12/08 09:37:16;;;;;;;15.23;10.10;;;1.00;99.90;;;;;;4993601;28;20186;-44
2022/12/08 09:39:42;;;;;;;14.53;9.10;;;1.10;99.90;;;;;;4977878;28;20193;-44
2022/12/08 09:42:10;;;;;;;16.17;9.60;;;1.20;99.90;;;;;;4972863;28;20247;-45
2022/12/08 09:45:14;;;;;;;15.00;9.33;;;1.30;99.90;;;;;;4993790;28;20204;-44
2022/12/08 09:47:46;;;;;;;16.30;9.57;;;1.40;99.90;;;;;;4978364;28;20193;-45
2022/12/08 09:50:35;;;;;;;13.10;8.90;;;1.50;99.90;;;;;;4995715;28;20312;-46
2022/12/08 09:53:10;;;;;;;11.93;8.27;;;1.50;99.90;;;;;;4979103;28;20185;-46
2022/12/08 09:55:42;;;;;;;12.40;8.60;;;1.60;99.90;;;;;;4995873;28;20212;-47
2022/12/08 09:58:23;;;;;;;11.30;8.33;;;1.60;99.90;;;;;;4995327;28;20181;-46
2022/12/08 10:00:49;;;;;;;14.80;9.17;;;1.60;99.90;;;;;;4994159;28;20241;-47
2022/12/08 10:03:15;;;;;;;13.77;9.03;;;1.60;99.90;;;;;;4979548;28;20281;-46
2022/12/08 10:05:54;;;;;;;12.90;8.40;;;1.70;99.90;;;;;;4995531;28;20207;-46
2022/12/08 10:08:35;;;;;;;14.13;8.70;;;1.80;99.90;;;;;;4979804;28;20181;-47
2022/12/08 10:11:11;;;;;;;14.43;8.40;;;1.90;99.90;;;;;;4996245;28;20189;-47
2022/12/08 10:14:11;;;;;;;13.93;9.03;;;2.00;99.90;;;;;;4979414;28;20201;-46
2022/12/08 10:16:43;;;;;;;13.60;8.17;;;2.10;99.90;;;;;;4968116;28;20183;-46
2022/12/08 10:19:20;;;;;;;12.37;8.00;;;2.20;99.90;;;;;;4979169;28;20657;-46
2022/12/08 10:21:47;;;;;;;13.97;8.43;;;2.30;99.90;;;;;;4979255;28;20189;-45
2022/12/08 10:24:22;;;;;;;15.10;8.97;;;2.40;99.90;;;;;;4986846;28;20229;-45
2022/12/08 10:26:48;;;;;;;11.07;8.37;;;2.40;99.90;;;;;;4997823;28;20706;-46
2022/12/08 10:29:15;;;;;;;13.07;8.70;;;2.30;99.90;;;;;;4997115;28;20177;-46
2022/12/08 10:31:41;;;;;;;14.43;8.90;;;2.20;99.90;;;;;;4983335;28;20635;-45
2022/12/08 10:34:19;;;;;;;14.87;8.17;;;2.20;99.90;;;;;;4979793;28;20211;-46
2022/12/08 10:36:54;;;;;;;11.50;8.13;;;2.10;99.90;;;;;;4982733;28;20190;-46
2022/12/08 10:39:37;;;;;;;14.80;9.53;;;2.00;99.90;;;;;;4999014;28;20181;-46
2022/12/08 10:42:17;;;;;;;12.50;8.60;;;1.90;99.90;;;;;;4981459;28;20183;-47
2022/12/08 10:45:08;;;;;;;14.60;9.30;;;1.90;99.90;;;;;;4982404;28;20235;-46
2022/12/08 10:47:42;;;;;;;11.50;8.67;;;1.90;99.90;;;;;;4982824;28;20195;-46
2022/12/08 10:50:26;;;;;;;12.97;9.13;;;1.90;99.90;;;;;;4998910;28;20183;-47
2022/12/08 10:53:09;;;;;;;13.33;9.07;;;2.00;99.90;;;;;;4998953;28;20179;-46
2022/12/08 10:55:48;;;;;;;13.13;8.93;;;2.10;99.90;;;;;;4982454;28;20183;-46
2022/12/08 10:58:42;;;;;;;11.33;8.57;;;2.20;99.90;;;;;;4982333;28;20285;-45
2022/12/08 11:01:24;;;;;;;10.67;8.30;;;2.40;99.90;;;;;;4988916;28;20182;-45
2022/12/08 11:03:56;;;;;;;10.83;7.80;;;2.50;99.90;;;;;;5014856;28;20211;-44
2022/12/08 11:06:37;;;;;;;10.47;7.67;;;2.60;99.90;;;;;;4981850;28;20256;-46
2022/12/08 11:09:30;;;;;;;12.60;7.37;;;2.80;99.90;;;;;;4998137;28;20247;-44
2022/12/08 11:11:59;;;;;;;9.40;6.23;;;2.90;99.90;;;;;;4996439;28;20194;-42
2022/12/08 11:14:38;;;;;;;8.33;6.23;;;2.90;99.90;;;;;;4976927;28;20200;-45
2022/12/08 11:17:20;;;;;;;12.90;6.50;;;3.00;99.90;;;;;;4998048;28;20334;-45
2022/12/08 11:19:58;;;;;;;7.73;5.60;;;3.10;99.90;;;;;;4998631;28;20194;-45
2022/12/08 11:22:31;;;;;;;7.30;5.07;;;3.20;99.90;;;;;;4997826;28;20274;-45
2022/12/08 11:25:19;;;;;;;6.37;4.47;;;3.50;99.90;;;;;;4992332;28;20222;-45
2022/12/08 11:27:48;;;;;;;6.20;4.23;;;3.70;99.90;;;;;;4980208;28;20179;-45
2022/12/08 11:30:27;;;;;;;6.37;4.27;;;3.80;99.90;;;;;;4980431;28;20270;-45
2022/12/08 11:33:04;;;;;;;6.70;4.53;;;3.80;99.90;;;;;;5013099;28;20190;-45
2022/12/08 11:35:43;;;;;;;6.77;5.07;;;3.90;99.90;;;;;;5014229;28;20187;-45
2022/12/08 11:38:22;;;;;;;7.33;4.30;;;4.00;99.90;;;;;;5007785;28;20222;-45
2022/12/08 11:41:08;;;;;;;8.03;4.90;;;4.10;99.90;;;;;;4979710;28;20190;-45
2022/12/08 11:43:33;;;;;;;5.30;4.03;;;4.20;99.90;;;;;;4995304;28;20203;-44
2022/12/08 11:46:02;;;;;;;11.33;5.10;;;4.30;99.90;;;;;;4979532;28;20269;-44
2022/12/08 11:48:36;;;;;;;6.07;3.40;;;4.30;99.90;;;;;;4979107;28;20559;-44
2022/12/08 11:51:14;;;;;;;7.90;4.53;;;4.40;99.90;;;;;;4995799;28;20194;-44
2022/12/08 11:54:19;;;;;;;7.87;4.47;;;4.50;99.90;;;;;;4979155;28;20199;-44
2022/12/08 11:56:54;;;;;;;5.83;4.37;;;4.60;99.90;;;;;;4978425;28;20195;-44
2022/12/08 11:59:36;;;;;;;5.97;4.10;;;4.80;99.90;;;;;;4996171;28;20246;-44
2022/12/08 12:02:04;;;;;;;7.10;4.63;;;4.90;99.90;;;;;;4979196;28;20191;-44
2022/12/08 12:04:35;;;;;;;5.40;4.20;;;4.90;99.90;;;;;;4979308;28;20211;-44
2022/12/08 12:07:16;;;;;;;9.10;4.87;;;4.90;99.90;;;;;;4978750;28;20203;-44
2022/12/08 12:10:03;;;;;;;5.87;4.33;;;5.00;99.90;;;;;;4979285;28;20190;-44
2022/12/08 12:12:48;;;;;;;7.17;4.43;;;5.20;99.90;;;;;;4978764;28;20191;-44
2022/12/08 12:15:26;;;;;;;7.07;4.37;;;5.20;99.90;;;;;;4978720;28;20225;-44
2022/12/08 12:17:54;;;;;;;5.20;3.47;;;5.20;99.90;;;;;;4978922;28;20189;-44
2022/12/08 12:20:49;;;;;;;5.37;3.40;;;5.30;99.90;;;;;;4995029;28;20262;-44
2022/12/08 12:23:20;;;;;;;5.47;3.63;;;5.30;99.90;;;;;;4979091;28;20279;-44
2022/12/08 12:25:58;;;;;;;5.67;3.50;;;5.10;99.90;;;;;;4987226;28;20208;-44
2022/12/08 12:28:28;;;;;;;4.93;3.40;;;4.90;99.90;;;;;;4994660;28;20198;-44
2022/12/08 12:31:01;;;;;;;3.63;2.97;;;4.60;99.90;;;;;;4967059;28;20271;-45
2022/12/08 12:33:30;;;;;;;4.17;3.10;;;4.30;99.90;;;;;;4974452;28;20198;-45
2022/12/08 12:36:00;;;;;;;3.00;2.27;;;4.20;99.90;;;;;;4986337;28;20186;-45
2022/12/08 12:41:30;;;;;;;4.90;3.20;;;4.00;99.90;;;;;;5021799;28;20183;-44
2022/12/08 12:44:28;;;;;;;5.70;4.03;;;3.90;99.90;;;;;;4986787;28;20207;-45
2022/12/08 12:46:56;;;;;;;5.17;3.77;;;3.80;99.90;;;;;;4980446;28;20227;-46
2022/12/08 12:49:40;;;;;;;3.73;2.77;;;3.70;99.90;;;;;;5003541;28;20233;-45
2022/12/08 12:52:14;;;;;;;3.93;2.90;;;3.60;99.90;;;;;;5000243;28;20183;-41
2022/12/08 12:55:03;;;;;;;4.60;2.80;;;3.50;99.90;;;;;;5001429;28;20226;-44
2022/12/08 12:57:49;;;;;;;3.50;2.90;;;3.50;99.90;;;;;;4988514;28;20175;-45
2022/12/08 13:00:21;;;;;;;4.57;2.93;;;3.50;99.90;;;;;;4985126;28;20179;-45
2022/12/08 13:02:48;;;;;;;4.60;3.67;;;3.50;99.90;;;;;;4995105;28;20273;-45
2022/12/08 13:05:23;;;;;;;5.87;3.50;;;3.50;99.90;;;;;;4990621;28;20310;-45
2022/12/08 13:08:02;;;;;;;5.07;3.53;;;3.50;99.90;;;;;;4994500;28;20178;-45
2022/12/08 13:10:37;;;;;;;5.00;3.10;;;3.50;99.90;;;;;;4978436;28;20179;-45
2022/12/08 13:13:09;;;;;;;4.53;3.47;;;3.40;99.90;;;;;;4978382;28;20197;-45
2022/12/08 13:16:04;;;;;;;5.50;3.60;;;3.40;99.90;;;;;;4977860;28;20225;-45
2022/12/08 13:18:39;;;;;;;5.20;3.80;;;3.40;99.90;;;;;;4978392;28;20187;-45